Time;durP1;ratioP1;P1;durP2;ratioP2;P2;SDS_P1;SDS_P2;PMS_P1;PMS_P2;Temp;Humidity;BMP_temperature;BMP_pressure;BME280_temperature;BME280_humidity;BME280_pressure;Samples;Min_cycle;Max_cycle;Signal;HPM_P1;HPM_P2
2021/09/22 00:01:09;;;;;;;14.17;10.07;;;13.10;99.90;;;;;;5108560;28;20318;-73
2021/09/22 00:03:36;;;;;;;14.70;9.43;;;13.20;99.90;;;;;;5108401;28;20226;-73
2021/09/22 00:06:04;;;;;;;16.70;9.73;;;13.20;99.90;;;;;;5107948;28;20247;-73
2021/09/22 00:08:31;;;;;;;13.27;9.00;;;13.20;99.90;;;;;;5108189;28;20672;-73
2021/09/22 00:10:59;;;;;;;14.00;9.00;;;13.20;99.90;;;;;;5108555;28;20271;-73
2021/09/22 00:13:25;;;;;;;11.73;9.13;;;13.30;99.90;;;;;;5108379;28;20276;-73
2021/09/22 00:15:53;;;;;;;12.50;8.67;;;13.30;99.90;;;;;;5108311;28;20251;-73
2021/09/22 00:18:19;;;;;;;9.87;8.30;;;13.40;99.90;;;;;;5108591;28;20206;-73
2021/09/22 00:20:46;;;;;;;12.13;8.37;;;13.50;99.90;;;;;;5108326;28;20237;-72
2021/09/22 00:23:14;;;;;;;14.90;8.43;;;13.50;99.90;;;;;;5108622;28;20210;-72
2021/09/22 00:25:40;;;;;;;12.50;8.73;;;13.40;99.90;;;;;;5108361;28;20221;-72
2021/09/22 00:28:07;;;;;;;10.17;8.30;;;13.40;99.90;;;;;;5108287;28;20264;-72
2021/09/22 00:30:35;;;;;;;14.60;8.37;;;13.50;99.90;;;;;;5107249;28;21134;-72
2021/09/22 00:33:02;;;;;;;10.73;7.70;;;13.40;99.90;;;;;;5108414;28;20210;-73
2021/09/22 00:35:28;;;;;;;12.07;8.30;;;13.30;99.90;;;;;;5109584;28;20225;-73
2021/09/22 00:37:55;;;;;;;10.47;7.37;;;13.30;99.90;;;;;;5112082;28;20667;-73
2021/09/22 00:40:23;;;;;;;11.47;7.97;;;13.30;99.90;;;;;;5112105;28;20254;-73
2021/09/22 00:42:50;;;;;;;16.90;8.43;;;13.30;99.90;;;;;;5112139;28;20245;-73
2021/09/22 00:45:17;;;;;;;11.13;7.33;;;13.30;99.90;;;;;;5112001;28;20236;-73
2021/09/22 00:47:45;;;;;;;11.07;7.13;;;13.30;99.90;;;;;;5112016;28;20209;-73
2021/09/22 00:50:13;;;;;;;12.93;7.50;;;13.20;99.90;;;;;;5112036;28;20255;-73
2021/09/22 00:52:41;;;;;;;12.77;8.10;;;13.20;99.90;;;;;;5111778;28;20206;-73
2021/09/22 00:55:09;;;;;;;11.60;7.57;;;13.10;99.90;;;;;;5111410;28;20661;-73
2021/09/22 00:57:46;;;;;;;12.43;7.20;;;13.10;99.90;;;;;;5110803;28;20322;-73
2021/09/22 01:00:14;;;;;;;14.77;7.53;;;13.10;99.90;;;;;;5111761;28;20279;-73
2021/09/22 01:02:40;;;;;;;10.83;7.43;;;13.10;99.90;;;;;;5111605;28;20205;-73
2021/09/22 01:05:08;;;;;;;13.30;7.63;;;13.10;99.90;;;;;;5111935;28;20226;-73
2021/09/22 01:07:35;;;;;;;13.33;7.87;;;13.10;99.90;;;;;;5111306;28;20672;-73
2021/09/22 01:10:01;;;;;;;12.73;7.07;;;13.10;99.90;;;;;;5111255;28;20573;-73
2021/09/22 01:12:28;;;;;;;17.37;8.20;;;13.00;99.90;;;;;;5111446;28;20210;-73
2021/09/22 01:14:56;;;;;;;14.87;8.57;;;12.90;99.90;;;;;;5110960;28;20672;-73
2021/09/22 01:17:22;;;;;;;20.17;8.17;;;12.90;99.90;;;;;;5111603;28;20217;-72
2021/09/22 01:19:49;;;;;;;16.10;7.77;;;12.90;99.90;;;;;;5111287;27;20602;-72
2021/09/22 01:22:18;;;;;;;11.83;7.93;;;12.90;99.90;;;;;;5111166;28;20607;-72
2021/09/22 01:24:45;;;;;;;16.27;8.30;;;12.80;99.90;;;;;;5111237;28;20321;-72
2021/09/22 01:27:11;;;;;;;13.63;7.77;;;12.80;99.90;;;;;;5111049;28;20295;-72
2021/09/22 01:29:38;;;;;;;14.63;7.50;;;12.80;99.90;;;;;;5110988;28;20222;-72
2021/09/22 01:32:05;;;;;;;11.17;6.77;;;12.80;99.90;;;;;;5111261;28;20202;-72
2021/09/22 01:34:32;;;;;;;15.60;7.83;;;12.80;99.90;;;;;;5111226;28;20206;-73
2021/09/22 01:36:58;;;;;;;15.03;6.83;;;12.80;99.90;;;;;;5111102;28;20258;-72
2021/09/22 01:39:26;;;;;;;12.37;6.20;;;12.80;99.90;;;;;;5110986;28;20224;-72
2021/09/22 01:41:53;;;;;;;18.47;6.57;;;12.90;99.90;;;;;;5111091;28;20233;-72
2021/09/22 01:44:19;;;;;;;19.70;5.93;;;12.90;99.90;;;;;;5111009;28;20206;-72
2021/09/22 01:46:46;;;;;;;13.90;6.50;;;13.00;99.90;;;;;;5110467;27;20202;-72
2021/09/22 01:49:22;;;;;;;14.83;5.97;;;13.00;99.90;;;;;;5111063;28;20261;-72
2021/09/22 01:51:56;;;;;;;19.37;6.17;;;13.00;99.90;;;;;;5110609;28;20204;-72
2021/09/22 01:54:22;;;;;;;16.70;5.97;;;13.00;99.90;;;;;;5110688;28;20198;-72
2021/09/22 01:56:50;;;;;;;11.83;5.07;;;13.10;99.90;;;;;;5110615;28;20206;-73
2021/09/22 01:59:17;;;;;;;14.23;5.50;;;13.10;99.90;;;;;;5110349;28;20257;-72
2021/09/22 02:01:44;;;;;;;15.47;4.93;;;13.10;99.90;;;;;;5110265;28;20230;-72
2021/09/22 02:04:10;;;;;;;16.83;5.07;;;13.10;99.90;;;;;;5110534;28;20218;-73
2021/09/22 02:06:37;;;;;;;18.93;4.97;;;13.20;99.90;;;;;;5110324;28;20202;-72
2021/09/22 02:09:04;;;;;;;13.13;4.60;;;13.20;99.90;;;;;;5110204;28;20682;-73
2021/09/22 02:11:31;;;;;;;16.50;4.67;;;13.20;99.90;;;;;;5110147;28;21031;-73
2021/09/22 02:13:59;;;;;;;13.33;4.37;;;13.30;99.90;;;;;;5110300;28;20202;-73
2021/09/22 02:16:26;;;;;;;9.83;4.00;;;13.20;99.90;;;;;;5110378;28;20209;-72
2021/09/22 02:18:52;;;;;;;12.30;4.27;;;13.30;99.90;;;;;;5110598;28;20553;-72
2021/09/22 02:21:19;;;;;;;10.37;3.73;;;13.30;99.90;;;;;;5110177;28;20230;-73
2021/09/22 02:23:45;;;;;;;12.80;4.20;;;13.30;99.90;;;;;;5110326;27;20206;-73
2021/09/22 02:26:12;;;;;;;18.87;4.40;;;13.40;99.90;;;;;;5110093;28;20226;-72
2021/09/22 02:28:40;;;;;;;16.00;4.17;;;13.30;99.90;;;;;;5109748;28;20226;-73
2021/09/22 02:31:08;;;;;;;13.50;4.53;;;13.30;99.90;;;;;;5110151;28;20224;-72
2021/09/22 02:33:35;;;;;;;14.20;4.27;;;13.30;99.90;;;;;;5110036;28;20216;-72
2021/09/22 02:36:01;;;;;;;15.43;4.20;;;13.30;99.90;;;;;;5109019;28;20191;-72
2021/09/22 02:38:28;;;;;;;15.07;4.83;;;13.30;99.90;;;;;;5109999;28;20202;-72
2021/09/22 02:40:55;;;;;;;16.73;5.47;;;13.30;99.90;;;;;;5110007;28;20234;-73
2021/09/22 02:43:22;;;;;;;14.63;4.13;;;13.30;99.90;;;;;;5109806;28;20206;-72
2021/09/22 02:45:48;;;;;;;15.27;4.83;;;13.30;99.90;;;;;;5109446;28;20667;-73
2021/09/22 02:48:16;;;;;;;13.93;4.57;;;13.30;99.90;;;;;;5109680;28;20205;-72
2021/09/22 02:50:43;;;;;;;15.90;4.33;;;13.30;99.90;;;;;;5109698;28;20259;-72
2021/09/22 02:53:10;;;;;;;14.23;4.57;;;13.30;99.90;;;;;;5109969;28;20244;-72
2021/09/22 02:55:36;;;;;;;16.07;4.77;;;13.30;99.90;;;;;;5109681;28;20206;-74
2021/09/22 02:58:03;;;;;;;14.53;4.10;;;13.20;99.90;;;;;;5108033;28;20269;-73
2021/09/22 03:00:30;;;;;;;15.53;4.30;;;13.30;99.90;;;;;;5088404;28;20234;-72
2021/09/22 03:02:57;;;;;;;13.90;4.90;;;13.30;99.90;;;;;;5089145;28;20227;-72
2021/09/22 03:05:25;;;;;;;21.23;4.30;;;13.20;99.90;;;;;;5088924;28;20211;-72
2021/09/22 03:07:51;;;;;;;15.63;4.70;;;13.20;99.90;;;;;;5089061;28;20234;-72
2021/09/22 03:10:19;;;;;;;18.50;4.83;;;13.20;99.90;;;;;;5088897;28;20609;-73
2021/09/22 03:12:45;;;;;;;19.57;4.50;;;13.10;99.90;;;;;;5105651;28;20313;-72
2021/09/22 03:15:12;;;;;;;16.63;4.53;;;13.10;99.90;;;;;;5105549;28;20626;-72
2021/09/22 03:17:39;;;;;;;11.93;4.50;;;13.10;99.90;;;;;;5105081;28;20676;-72
2021/09/22 03:20:07;;;;;;;15.40;5.13;;;13.10;99.90;;;;;;5117705;27;20255;-73
2021/09/22 03:22:35;;;;;;;12.23;4.00;;;13.00;99.90;;;;;;5125069;27;20272;-73
2021/09/22 03:25:01;;;;;;;17.60;4.50;;;12.90;99.90;;;;;;5125621;27;20695;-72
2021/09/22 03:27:28;;;;;;;14.57;4.30;;;12.80;99.90;;;;;;5108456;27;20257;-72
2021/09/22 03:29:55;;;;;;;17.37;4.33;;;12.80;99.90;;;;;;5105342;28;20237;-75
2021/09/22 03:32:21;;;;;;;20.67;7.07;;;12.80;99.90;;;;;;5105668;28;20266;-75
2021/09/22 03:34:48;;;;;;;16.63;4.50;;;12.80;99.90;;;;;;5107405;27;20728;-72
2021/09/22 03:37:15;;;;;;;15.33;5.10;;;12.70;99.90;;;;;;5125989;27;20630;-72
2021/09/22 03:39:43;;;;;;;19.53;4.70;;;12.60;99.90;;;;;;5125621;27;20233;-72
2021/09/22 03:42:10;;;;;;;20.40;5.37;;;12.50;99.90;;;;;;5125763;27;20520;-72
2021/09/22 03:44:36;;;;;;;16.07;5.07;;;12.50;99.90;;;;;;5125450;27;20603;-72
2021/09/22 03:47:04;;;;;;;22.70;4.97;;;12.50;99.90;;;;;;5125062;27;20603;-72
2021/09/22 03:49:30;;;;;;;19.47;5.00;;;12.50;99.90;;;;;;5124936;27;20205;-72
2021/09/22 03:51:57;;;;;;;17.87;4.63;;;12.50;99.90;;;;;;5125039;27;20209;-72
2021/09/22 03:54:24;;;;;;;12.60;4.23;;;12.50;99.90;;;;;;5125727;27;20236;-72
2021/09/22 03:56:52;;;;;;;17.10;4.37;;;12.50;99.90;;;;;;5125838;27;20563;-72
2021/09/22 03:59:18;;;;;;;18.83;4.30;;;12.50;99.90;;;;;;5118376;28;20720;-72
2021/09/22 04:01:45;;;;;;;23.77;5.10;;;12.40;99.90;;;;;;5097725;28;20683;-72
2021/09/22 04:04:12;;;;;;;14.43;4.80;;;12.40;99.90;;;;;;5104703;28;20262;-72
2021/09/22 04:06:39;;;;;;;12.43;4.00;;;12.40;99.90;;;;;;5108317;28;20207;-72
2021/09/22 04:09:08;;;;;;;21.03;5.57;;;12.40;99.90;;;;;;5102151;28;20206;-72
2021/09/22 04:11:35;;;;;;;17.03;4.57;;;12.40;99.90;;;;;;5096832;28;20669;-72
2021/09/22 04:14:03;;;;;;;21.47;5.07;;;12.50;99.90;;;;;;5102968;28;20233;-72
2021/09/22 04:16:30;;;;;;;19.53;5.03;;;12.40;99.90;;;;;;5097136;28;20238;-72
2021/09/22 04:18:57;;;;;;;14.03;4.30;;;12.40;99.90;;;;;;5099572;28;20614;-72
2021/09/22 04:21:24;;;;;;;13.47;4.27;;;12.30;99.90;;;;;;5098000;28;20687;-72
2021/09/22 04:23:50;;;;;;;17.53;4.80;;;12.30;99.90;;;;;;5104072;28;20210;-72
2021/09/22 04:26:17;;;;;;;20.47;4.87;;;12.20;99.90;;;;;;5102087;28;20259;-72
2021/09/22 04:28:44;;;;;;;17.07;4.90;;;12.10;99.90;;;;;;5100919;28;20214;-72
2021/09/22 04:31:12;;;;;;;13.23;3.83;;;12.10;99.90;;;;;;5099840;28;20202;-72
2021/09/22 04:33:38;;;;;;;15.37;4.63;;;12.10;99.90;;;;;;5099293;28;20191;-72
2021/09/22 04:36:05;;;;;;;18.90;5.20;;;12.10;99.90;;;;;;5099360;28;20198;-72
2021/09/22 04:38:32;;;;;;;18.30;5.03;;;12.10;99.90;;;;;;5099388;28;20194;-72
2021/09/22 04:40:58;;;;;;;18.70;4.80;;;12.10;99.90;;;;;;5099383;28;20199;-72
2021/09/22 04:43:25;;;;;;;20.77;5.63;;;12.10;99.90;;;;;;5099443;28;20287;-72
2021/09/22 04:45:52;;;;;;;17.63;4.57;;;12.10;99.90;;;;;;5099113;28;20797;-72
2021/09/22 04:48:20;;;;;;;14.70;4.70;;;12.10;99.90;;;;;;5100983;28;20194;-72
2021/09/22 04:50:47;;;;;;;18.53;4.93;;;12.20;99.90;;;;;;5100814;28;20261;-72
2021/09/22 04:53:13;;;;;;;15.13;4.87;;;12.20;99.90;;;;;;5099261;28;20195;-72
2021/09/22 04:55:40;;;;;;;13.80;4.50;;;12.20;99.90;;;;;;5099381;28;20448;-72
2021/09/22 04:58:07;;;;;;;15.80;4.83;;;12.30;99.90;;;;;;5099843;28;20233;-72
2021/09/22 05:00:33;;;;;;;16.67;4.50;;;12.30;99.90;;;;;;5101627;28;20206;-72
2021/09/22 05:03:00;;;;;;;20.47;5.17;;;12.30;99.90;;;;;;5100741;28;20262;-72
2021/09/22 05:05:28;;;;;;;12.93;4.50;;;12.30;99.90;;;;;;5101073;28;20199;-72
2021/09/22 05:07:55;;;;;;;15.10;5.00;;;12.30;99.90;;;;;;5099572;28;20230;-72
2021/09/22 05:10:21;;;;;;;16.57;5.00;;;12.20;99.90;;;;;;5102827;27;20195;-72
2021/09/22 05:12:48;;;;;;;14.17;4.50;;;12.20;99.90;;;;;;5113893;27;20658;-72
2021/09/22 05:15:15;;;;;;;19.87;6.00;;;12.30;99.90;;;;;;5099340;28;20280;-77
2021/09/22 05:17:41;;;;;;;17.00;5.57;;;12.30;99.90;;;;;;5100794;28;20194;-76
2021/09/22 05:20:09;;;;;;;14.43;6.80;;;12.30;99.90;;;;;;5096010;28;20198;-76
2021/09/22 05:22:38;;;;;;;18.70;5.30;;;12.30;99.90;;;;;;5100880;28;20237;-72
2021/09/22 05:25:06;;;;;;;21.23;5.97;;;12.30;99.90;;;;;;5115498;27;20551;-72
2021/09/22 05:27:32;;;;;;;15.27;5.10;;;12.40;99.90;;;;;;5132029;27;20281;-72
2021/09/22 05:29:59;;;;;;;16.93;4.97;;;12.40;99.90;;;;;;5119498;27;21038;-72
2021/09/22 05:32:26;;;;;;;16.63;5.23;;;12.40;99.90;;;;;;5111298;28;20263;-72
2021/09/22 05:34:52;;;;;;;17.47;5.17;;;12.50;99.90;;;;;;5111300;28;20202;-72
2021/09/22 05:37:19;;;;;;;24.00;5.80;;;12.40;99.90;;;;;;5120707;27;20600;-72
2021/09/22 05:39:47;;;;;;;21.50;6.10;;;12.40;99.90;;;;;;5102787;27;20731;-72
2021/09/22 05:42:14;;;;;;;22.13;5.67;;;12.40;99.90;;;;;;5101251;28;20233;-72
2021/09/22 05:44:40;;;;;;;18.80;4.70;;;12.40;99.90;;;;;;5094506;28;20202;-72
2021/09/22 05:47:07;;;;;;;14.43;4.80;;;12.40;99.90;;;;;;5100483;28;20205;-72
2021/09/22 05:49:34;;;;;;;17.90;5.80;;;12.50;99.90;;;;;;5103532;28;20611;-72
2021/09/22 05:52:01;;;;;;;19.10;5.80;;;12.50;99.90;;;;;;5095772;28;20206;-72
2021/09/22 05:54:27;;;;;;;21.03;5.47;;;12.50;99.90;;;;;;5101379;28;20194;-72
2021/09/22 05:56:55;;;;;;;18.40;5.57;;;12.40;99.90;;;;;;5097951;28;20207;-72
2021/09/22 05:59:22;;;;;;;17.93;5.50;;;12.40;99.90;;;;;;5101039;28;20280;-72
2021/09/22 06:01:48;;;;;;;18.23;6.23;;;12.50;99.90;;;;;;5098284;28;20304;-72
2021/09/22 06:04:15;;;;;;;16.83;5.10;;;12.40;99.90;;;;;;5098068;28;20221;-72
2021/09/22 06:06:42;;;;;;;16.00;5.23;;;12.40;99.90;;;;;;5107228;27;20199;-72
2021/09/22 06:09:08;;;;;;;21.80;6.10;;;12.50;99.90;;;;;;5110814;28;20247;-73
2021/09/22 06:11:35;;;;;;;15.43;5.07;;;12.60;99.90;;;;;;5109699;28;20669;-72
2021/09/22 06:14:03;;;;;;;18.57;5.60;;;12.60;99.90;;;;;;5109971;28;20586;-72
2021/09/22 06:16:30;;;;;;;18.03;5.27;;;12.70;99.90;;;;;;5105882;28;20659;-72
2021/09/22 06:18:57;;;;;;;18.83;5.53;;;12.60;99.90;;;;;;5099127;28;20199;-72
2021/09/22 06:21:25;;;;;;;23.63;5.40;;;12.50;99.90;;;;;;5100569;28;20203;-72
2021/09/22 06:23:53;;;;;;;14.80;4.63;;;12.60;99.90;;;;;;5094883;28;20256;-72
2021/09/22 06:26:20;;;;;;;12.77;4.97;;;12.50;99.90;;;;;;5098384;28;20283;-72
2021/09/22 06:28:47;;;;;;;20.33;5.17;;;12.60;99.90;;;;;;5094721;28;20657;-72
2021/09/22 06:31:15;;;;;;;26.53;6.07;;;12.60;99.90;;;;;;5097535;28;20960;-71
2021/09/22 06:33:42;;;;;;;18.83;6.27;;;12.60;99.90;;;;;;5096646;28;20226;-71
2021/09/22 06:36:09;;;;;;;20.33;5.43;;;12.60;99.90;;;;;;5097735;28;20206;-71
2021/09/22 06:38:37;;;;;;;22.43;5.63;;;12.60;99.90;;;;;;5090701;28;20198;-71
2021/09/22 06:41:04;;;;;;;22.10;5.60;;;12.60;99.90;;;;;;5089753;28;20206;-71
2021/09/22 06:43:31;;;;;;;15.73;5.27;;;12.60;99.90;;;;;;5089304;28;20238;-71
2021/09/22 06:45:58;;;;;;;14.87;5.30;;;12.70;99.90;;;;;;5089758;28;20207;-71
2021/09/22 06:48:26;;;;;;;22.73;5.83;;;12.70;99.90;;;;;;5089622;28;20256;-71
2021/09/22 06:50:53;;;;;;;15.87;4.83;;;12.80;99.90;;;;;;5089343;28;20203;-71
2021/09/22 06:53:20;;;;;;;21.20;4.77;;;12.70;99.90;;;;;;5089588;28;20203;-71
2021/09/22 06:55:46;;;;;;;19.20;5.37;;;12.80;99.90;;;;;;5089226;28;20248;-72
2021/09/22 06:58:13;;;;;;;16.23;5.40;;;12.90;99.90;;;;;;5090336;28;20715;-72
2021/09/22 07:00:40;;;;;;;16.13;4.50;;;12.90;99.90;;;;;;5107942;28;20251;-71
2021/09/22 07:03:11;;;;;;;15.67;4.57;;;12.90;99.90;;;;;;5109418;28;20242;-72
2021/09/22 07:05:39;;;;;;;18.17;4.43;;;12.90;99.90;;;;;;5109379;28;20193;-71
2021/09/22 07:08:06;;;;;;;18.73;4.53;;;13.00;99.90;;;;;;5109638;28;20616;-71
2021/09/22 07:10:34;;;;;;;16.30;5.10;;;13.00;99.90;;;;;;5119876;27;20254;-71
2021/09/22 07:13:01;;;;;;;16.50;5.37;;;13.00;99.90;;;;;;5120248;27;20254;-71
2021/09/22 07:15:27;;;;;;;17.50;5.10;;;13.10;99.90;;;;;;5102067;28;20233;-72
2021/09/22 07:17:54;;;;;;;24.60;5.23;;;13.10;99.90;;;;;;5097815;28;20210;-72
2021/09/22 07:20:21;;;;;;;18.43;4.50;;;13.10;99.90;;;;;;5095774;28;20665;-72
2021/09/22 07:22:49;;;;;;;18.03;4.70;;;13.20;99.90;;;;;;5098522;28;20703;-72
2021/09/22 07:25:15;;;;;;;20.10;4.70;;;13.20;99.90;;;;;;5098195;28;20278;-72
2021/09/22 07:27:42;;;;;;;20.60;5.03;;;13.30;99.90;;;;;;5101443;28;20230;-72
2021/09/22 07:30:13;;;;;;;15.67;5.10;;;13.30;99.90;;;;;;5099721;28;20221;-72
2021/09/22 07:32:40;;;;;;;20.13;5.07;;;13.20;99.90;;;;;;5093880;28;20703;-72
2021/09/22 07:35:07;;;;;;;25.53;5.23;;;13.20;99.90;;;;;;5090241;28;20727;-71
2021/09/22 07:37:34;;;;;;;21.73;4.33;;;13.20;99.90;;;;;;5098502;28;20197;-72
2021/09/22 07:40:02;;;;;;;18.40;5.10;;;13.20;99.90;;;;;;5098579;28;20731;-72
2021/09/22 07:42:29;;;;;;;21.97;5.07;;;13.20;99.90;;;;;;5098867;28;20263;-75
2021/09/22 07:44:55;;;;;;;18.07;8.40;;;13.20;99.90;;;;;;5095660;28;20195;-75
2021/09/22 07:47:23;;;;;;;22.67;5.90;;;13.30;99.90;;;;;;5098739;28;20214;-75
2021/09/22 07:49:50;;;;;;;19.10;4.97;;;13.30;99.90;;;;;;5108336;28;20202;-72
2021/09/22 07:52:17;;;;;;;16.47;5.23;;;13.40;99.90;;;;;;5099712;28;20203;-72
2021/09/22 07:54:44;;;;;;;22.03;5.20;;;13.40;99.90;;;;;;5098211;28;20229;-71
2021/09/22 07:57:12;;;;;;;16.37;4.70;;;13.50;99.90;;;;;;5096779;28;20205;-71
2021/09/22 07:59:39;;;;;;;16.00;4.50;;;13.60;99.90;;;;;;5096689;28;20247;-71
2021/09/22 08:02:06;;;;;;;17.40;5.03;;;13.60;99.90;;;;;;5096259;28;20210;-71
2021/09/22 08:04:33;;;;;;;16.73;4.90;;;13.60;99.90;;;;;;5098631;28;20198;-71
2021/09/22 08:07:02;;;;;;;19.30;4.90;;;13.70;99.90;;;;;;5099048;28;20652;-71
2021/09/22 08:09:28;;;;;;;15.50;4.73;;;13.80;99.90;;;;;;5095805;28;20194;-71
2021/09/22 08:11:55;;;;;;;15.37;4.80;;;13.80;99.90;;;;;;5097096;28;20609;-71
2021/09/22 08:14:29;;;;;;;20.07;4.90;;;13.80;99.90;;;;;;5098271;28;20257;-71
2021/09/22 08:16:56;;;;;;;14.60;4.27;;;13.70;99.90;;;;;;5097542;28;20197;-71
2021/09/22 08:19:22;;;;;;;16.53;4.70;;;13.80;99.90;;;;;;5096035;28;20202;-71
2021/09/22 08:21:49;;;;;;;19.10;4.77;;;13.80;99.90;;;;;;5096396;28;20253;-71
2021/09/22 08:24:15;;;;;;;19.83;5.20;;;13.80;99.90;;;;;;5095928;28;20223;-71
2021/09/22 08:26:42;;;;;;;19.37;4.70;;;13.90;99.90;;;;;;5095670;28;20280;-71
2021/09/22 08:29:09;;;;;;;20.53;4.83;;;14.00;99.90;;;;;;5096466;28;20207;-71
2021/09/22 08:31:37;;;;;;;16.27;4.67;;;14.00;99.90;;;;;;5096187;28;20664;-71
2021/09/22 08:34:04;;;;;;;16.00;4.63;;;14.00;99.90;;;;;;5098626;28;20206;-71
2021/09/22 08:36:30;;;;;;;12.30;4.10;;;14.00;99.90;;;;;;5097466;28;20275;-71
2021/09/22 08:38:57;;;;;;;17.77;4.80;;;14.00;99.90;;;;;;5097598;28;20269;-71
2021/09/22 08:41:24;;;;;;;15.80;4.33;;;13.90;99.90;;;;;;5097160;28;20191;-71
2021/09/22 08:43:51;;;;;;;16.83;4.97;;;14.00;99.90;;;;;;5094886;28;20697;-71
2021/09/22 08:46:19;;;;;;;16.30;4.67;;;14.00;99.90;;;;;;5100465;28;20229;-71
2021/09/22 08:48:47;;;;;;;14.10;4.30;;;14.00;99.90;;;;;;5094736;28;20719;-71
2021/09/22 08:51:14;;;;;;;19.07;5.00;;;14.10;99.90;;;;;;5098345;28;20198;-71
2021/09/22 08:53:41;;;;;;;17.63;4.70;;;14.20;99.90;;;;;;5097745;28;20603;-71
2021/09/22 08:56:11;;;;;;;17.70;4.60;;;14.20;99.90;;;;;;5098813;28;20202;-71
2021/09/22 08:58:39;;;;;;;20.17;4.87;;;14.30;99.90;;;;;;5100543;28;20650;-71
2021/09/22 09:01:14;;;;;;;12.60;4.53;;;14.40;99.90;;;;;;5099200;28;20644;-71
2021/09/22 09:03:42;;;;;;;16.13;4.03;;;14.40;99.90;;;;;;5102067;28;20329;-71
2021/09/22 09:06:21;;;;;;;14.37;4.93;;;14.40;99.90;;;;;;5102428;28;20223;-71
2021/09/22 09:08:49;;;;;;;20.73;4.50;;;14.50;99.90;;;;;;5108259;28;20198;-71
2021/09/22 09:11:16;;;;;;;16.87;4.57;;;14.50;99.90;;;;;;5111152;28;20205;-71
2021/09/22 09:13:47;;;;;;;15.00;4.37;;;14.60;99.90;;;;;;5110565;28;20897;-71
2021/09/22 09:16:17;;;;;;;22.17;4.50;;;14.60;99.90;;;;;;5110394;28;20217;-71
2021/09/22 09:18:48;;;;;;;18.97;5.30;;;14.70;99.90;;;;;;5110702;28;20202;-71
2021/09/22 09:21:15;;;;;;;16.13;5.03;;;14.70;99.90;;;;;;5110973;28;20247;-71
2021/09/22 09:23:51;;;;;;;18.53;5.40;;;14.70;99.90;;;;;;5110593;28;20605;-71
2021/09/22 09:26:22;;;;;;;20.07;4.67;;;14.70;99.90;;;;;;5110509;28;20229;-71
2021/09/22 09:28:51;;;;;;;15.07;4.03;;;14.70;99.90;;;;;;5110410;28;20198;-74
2021/09/22 09:31:19;;;;;;;14.47;4.67;;;14.80;99.90;;;;;;5110737;28;20665;-74
2021/09/22 09:33:48;;;;;;;15.83;4.57;;;14.80;99.90;;;;;;5110577;28;20677;-73
2021/09/22 09:36:30;;;;;;;17.73;4.40;;;14.90;99.90;;;;;;5108152;28;20256;-71
2021/09/22 09:39:05;;;;;;;17.57;4.37;;;14.90;99.90;;;;;;5096118;28;20267;-72
2021/09/22 09:41:40;;;;;;;18.20;4.23;;;15.00;99.90;;;;;;5095735;28;20236;-71
2021/09/22 09:44:08;;;;;;;18.30;4.50;;;15.00;99.90;;;;;;5096752;28;20217;-71
2021/09/22 09:46:37;;;;;;;16.97;4.80;;;15.10;99.90;;;;;;5103512;28;20202;-71
2021/09/22 09:49:08;;;;;;;15.07;3.83;;;15.20;99.90;;;;;;5100747;28;20202;-71
2021/09/22 09:51:40;;;;;;;21.13;4.50;;;15.20;99.90;;;;;;5100348;28;20202;-72
2021/09/22 09:54:15;;;;;;;17.90;4.40;;;15.20;99.90;;;;;;5100519;28;20190;-71
2021/09/22 09:56:42;;;;;;;15.73;3.83;;;15.30;99.90;;;;;;5099065;28;20231;-71
2021/09/22 09:59:09;;;;;;;18.93;4.30;;;15.30;99.90;;;;;;5098444;28;20233;-71
2021/09/22 10:01:37;;;;;;;15.93;4.07;;;15.40;99.90;;;;;;5097926;28;20219;-72
2021/09/22 10:04:05;;;;;;;16.67;4.77;;;15.40;99.90;;;;;;5098270;28;20235;-72
2021/09/22 10:06:32;;;;;;;19.90;4.53;;;15.50;99.90;;;;;;5098302;28;20199;-71
2021/09/22 10:08:58;;;;;;;18.23;4.80;;;15.50;99.90;;;;;;5097211;28;20660;-71
2021/09/22 10:11:27;;;;;;;13.70;4.23;;;15.60;99.90;;;;;;5098665;28;20724;-71
2021/09/22 10:13:54;;;;;;;16.13;4.30;;;15.60;99.90;;;;;;5097748;28;20245;-71
2021/09/22 10:16:21;;;;;;;12.23;4.20;;;15.70;99.90;;;;;;5099677;28;20206;-71
2021/09/22 10:18:48;;;;;;;16.83;4.40;;;15.70;99.90;;;;;;5099883;28;20245;-71
2021/09/22 10:21:17;;;;;;;16.17;4.60;;;15.60;99.90;;;;;;5098606;28;20229;-71
2021/09/22 10:23:44;;;;;;;17.13;3.97;;;15.50;99.90;;;;;;5098518;28;20225;-75
2021/09/22 10:26:11;;;;;;;18.10;4.90;;;15.50;99.90;;;;;;5099694;28;20299;-76
2021/09/22 10:28:42;;;;;;;21.00;5.83;;;15.50;99.90;;;;;;5098308;28;20195;-75
2021/09/22 10:31:16;;;;;;;14.57;4.60;;;15.40;99.90;;;;;;5098235;28;20240;-71
2021/09/22 10:33:46;;;;;;;20.10;4.73;;;15.40;99.90;;;;;;5098352;28;20191;-72
2021/09/22 10:36:13;;;;;;;19.50;4.77;;;15.40;99.90;;;;;;5097528;27;20276;-71
2021/09/22 10:38:46;;;;;;;15.03;4.33;;;15.40;99.90;;;;;;5100388;28;20218;-72
2021/09/22 10:41:30;;;;;;;13.80;4.50;;;15.40;99.90;;;;;;5097458;28;20553;-71
2021/09/22 10:43:58;;;;;;;16.73;4.13;;;15.50;99.90;;;;;;5097353;28;20269;-72
2021/09/22 10:46:30;;;;;;;12.10;3.93;;;15.50;99.90;;;;;;5097566;28;20226;-71
2021/09/22 10:49:15;;;;;;;15.90;4.17;;;15.50;99.90;;;;;;5097117;28;20274;-71
2021/09/22 10:51:45;;;;;;;12.10;3.67;;;15.60;99.90;;;;;;5096543;28;20226;-71
2021/09/22 10:54:14;;;;;;;18.77;4.40;;;15.70;99.90;;;;;;5099435;28;20197;-71
2021/09/22 10:56:57;;;;;;;15.90;3.93;;;15.80;99.90;;;;;;5096474;28;20267;-71
2021/09/22 10:59:31;;;;;;;20.13;4.50;;;15.80;99.90;;;;;;5099034;28;20261;-71
2021/09/22 11:01:58;;;;;;;18.33;3.73;;;15.90;99.90;;;;;;5099188;28;20590;-71
2021/09/22 11:04:25;;;;;;;14.83;4.23;;;16.00;99.90;;;;;;5106660;28;20266;-71
2021/09/22 11:07:00;;;;;;;19.23;7.13;;;16.10;99.90;;;;;;5108720;28;20285;-72
2021/09/22 11:09:35;;;;;;;13.57;4.53;;;16.20;99.90;;;;;;5108907;28;20569;-71
2021/09/22 11:12:10;;;;;;;14.47;4.10;;;16.20;99.90;;;;;;5108352;28;20204;-71
2021/09/22 11:14:41;;;;;;;15.93;4.03;;;16.20;99.90;;;;;;5108487;28;20243;-71
2021/09/22 11:17:10;;;;;;;16.07;4.63;;;16.30;99.90;;;;;;5108699;28;20190;-71
2021/09/22 11:19:38;;;;;;;14.33;4.07;;;16.40;99.90;;;;;;5107930;28;20206;-71
2021/09/22 11:22:06;;;;;;;15.70;4.20;;;16.50;99.90;;;;;;5108373;28;20628;-71
2021/09/22 11:24:34;;;;;;;17.10;3.87;;;16.50;99.90;;;;;;5108000;28;20234;-71
2021/09/22 11:27:03;;;;;;;13.67;4.30;;;16.60;99.90;;;;;;5108222;28;20318;-71
2021/09/22 11:29:32;;;;;;;16.13;4.23;;;16.60;99.90;;;;;;5108191;28;20213;-71
2021/09/22 11:32:01;;;;;;;12.93;3.83;;;16.70;99.90;;;;;;5108180;28;20206;-71
2021/09/22 11:34:29;;;;;;;12.17;3.67;;;16.60;99.90;;;;;;5108214;28;20580;-71
2021/09/22 11:37:04;;;;;;;15.70;4.20;;;16.70;99.90;;;;;;5107348;28;20656;-71
2021/09/22 11:39:31;;;;;;;12.67;3.87;;;16.90;99.90;;;;;;5107923;28;20193;-71
2021/09/22 11:41:58;;;;;;;10.57;3.77;;;17.00;99.90;;;;;;5107601;28;20921;-71
2021/09/22 11:44:26;;;;;;;11.73;3.97;;;17.00;99.90;;;;;;5107480;28;21072;-71
2021/09/22 11:46:54;;;;;;;10.03;2.73;;;17.00;99.90;;;;;;5107757;28;20702;-71
2021/09/22 11:49:22;;;;;;;12.87;3.60;;;17.10;99.90;;;;;;5108145;28;20647;-71
2021/09/22 11:52:08;;;;;;;14.37;3.50;;;17.30;99.90;;;;;;5107386;28;20575;-71
2021/09/22 11:54:35;;;;;;;11.73;3.27;;;17.30;99.90;;;;;;5107521;28;20201;-73
2021/09/22 11:57:06;;;;;;;11.87;3.40;;;17.40;99.90;;;;;;5107940;28;20237;-73
2021/09/22 11:59:34;;;;;;;10.77;3.50;;;17.30;99.90;;;;;;5107868;28;20616;-71
2021/09/22 12:02:01;;;;;;;13.17;3.70;;;17.40;99.90;;;;;;5107754;28;20222;-71
2021/09/22 12:04:32;;;;;;;13.27;3.53;;;17.40;99.90;;;;;;5107961;28;20751;-71
2021/09/22 12:06:59;;;;;;;11.50;3.50;;;17.40;99.90;;;;;;5107475;28;20571;-72
2021/09/22 12:09:26;;;;;;;12.53;3.50;;;17.50;99.90;;;;;;5099570;28;20209;-72
2021/09/22 12:12:08;;;;;;;19.80;4.03;;;17.70;99.90;;;;;;5100759;28;20201;-72
2021/09/22 12:14:35;;;;;;;9.43;3.27;;;17.70;99.90;;;;;;5094052;28;20198;-71
2021/09/22 12:17:06;;;;;;;18.83;4.13;;;17.80;99.90;;;;;;5102415;28;20206;-72
2021/09/22 12:19:38;;;;;;;21.13;4.20;;;17.80;99.90;;;;;;5105852;28;20206;-72
2021/09/22 12:22:04;;;;;;;14.53;3.90;;;17.80;99.90;;;;;;5106474;28;20217;-72
2021/09/22 12:24:33;;;;;;;11.60;3.90;;;17.80;99.90;;;;;;5105117;28;20242;-72
2021/09/22 12:27:00;;;;;;;14.10;4.23;;;17.90;99.90;;;;;;5088759;28;20232;-72
2021/09/22 12:29:27;;;;;;;12.33;3.23;;;18.10;99.90;;;;;;5085398;28;20206;-72
2021/09/22 12:31:54;;;;;;;9.97;3.60;;;18.10;99.90;;;;;;5087396;28;20276;-72
2021/09/22 12:34:23;;;;;;;14.67;3.47;;;18.20;99.90;;;;;;5089191;28;20259;-72
2021/09/22 12:36:53;;;;;;;8.03;3.00;;;18.30;99.90;;;;;;5089063;28;20211;-72
2021/09/22 12:39:22;;;;;;;16.07;3.67;;;18.20;99.90;;;;;;5089143;28;20203;-72
2021/09/22 12:42:01;;;;;;;14.47;3.60;;;18.10;99.90;;;;;;5088700;28;20206;-72